Time;durP1;ratioP1;P1;durP2;ratioP2;P2;SDS_P1;SDS_P2;PMS_P1;PMS_P2;Temp;Humidity;BMP_temperature;BMP_pressure;BME280_temperature;BME280_humidity;BME280_pressure;Samples;Min_cycle;Max_cycle;Signal;HPM_P1;HPM_P2
2021/11/19 00:00:14;;;;;;;23.85;12.55;;;12.00;99.90;;;;;;5057097;28;20025;-84
2021/11/19 00:02:40;;;;;;;26.13;12.50;;;12.00;99.90;;;;;;5056958;28;20068;-83
2021/11/19 00:05:07;;;;;;;29.27;13.68;;;12.00;99.90;;;;;;5022273;28;20048;-83
2021/11/19 00:07:33;;;;;;;34.70;13.60;;;12.00;99.90;;;;;;5039853;28;20032;-83
2021/11/19 00:09:59;;;;;;;25.77;13.57;;;12.00;99.90;;;;;;5039430;28;20021;-82
2021/11/19 00:12:25;;;;;;;32.47;13.18;;;12.00;99.90;;;;;;5039652;28;20029;-87
2021/11/19 00:14:51;;;;;;;30.42;14.18;;;12.00;99.90;;;;;;5023177;28;20548;-83
2021/11/19 00:17:17;;;;;;;27.30;14.02;;;11.90;99.90;;;;;;5055305;28;20055;-83
2021/11/19 00:19:45;;;;;;;29.45;13.55;;;11.90;99.90;;;;;;5039242;28;20060;-83
2021/11/19 00:22:14;;;;;;;31.50;13.57;;;11.90;99.90;;;;;;5056559;28;20465;-83
2021/11/19 00:24:41;;;;;;;28.38;13.43;;;11.90;99.90;;;;;;5057016;28;20021;-83
2021/11/19 00:27:10;;;;;;;27.83;15.48;;;12.00;99.90;;;;;;5057602;28;20377;-83
2021/11/19 00:29:36;;;;;;;34.55;15.27;;;12.00;99.90;;;;;;5056517;28;20520;-83
2021/11/19 00:32:03;;;;;;;25.08;14.13;;;11.90;99.90;;;;;;5056580;28;20026;-83
2021/11/19 00:34:28;;;;;;;30.67;15.00;;;12.00;99.90;;;;;;5057090;28;20032;-84
2021/11/19 00:36:56;;;;;;;30.17;15.05;;;12.00;99.90;;;;;;5039128;28;20507;-83
2021/11/19 00:39:25;;;;;;;32.17;14.55;;;12.00;99.90;;;;;;5038899;28;20039;-83
2021/11/19 00:41:50;;;;;;;31.23;15.10;;;12.00;99.90;;;;;;5056578;28;20025;-83
2021/11/19 00:44:17;;;;;;;29.15;14.40;;;12.00;99.90;;;;;;5038811;28;20380;-83
2021/11/19 00:46:45;;;;;;;28.63;15.63;;;12.00;99.90;;;;;;5056433;28;20025;-82
2021/11/19 00:49:12;;;;;;;29.30;14.00;;;12.00;99.90;;;;;;5038834;28;20071;-83
2021/11/19 00:51:43;;;;;;;26.13;14.30;;;12.00;99.90;;;;;;5022341;28;20075;-83
2021/11/19 00:54:09;;;;;;;;;;;12.10;99.90;;;;;;5056938;28;20443;-82
2021/11/19 00:56:44;;;;;;;25.95;14.13;;;12.10;99.90;;;;;;5038489;28;19947;-83
2021/11/19 00:59:11;;;;;;;30.63;14.55;;;12.10;99.90;;;;;;5038326;28;20469;-83
2021/11/19 01:01:45;;;;;;;28.77;16.30;;;12.10;99.90;;;;;;5056239;28;20154;-83
2021/11/19 01:04:12;;;;;;;29.88;15.70;;;12.10;99.90;;;;;;5038366;28;20021;-82
2021/11/19 01:06:39;;;;;;;32.22;17.10;;;12.10;99.90;;;;;;5037387;28;20431;-83
2021/11/19 01:09:09;;;;;;;30.02;15.93;;;12.10;99.90;;;;;;5056413;28;20060;-83
2021/11/19 01:11:35;;;;;;;28.83;16.50;;;12.20;99.90;;;;;;5055797;28;20033;-83
2021/11/19 01:14:03;;;;;;;26.40;15.27;;;12.20;99.90;;;;;;5056131;28;20025;-83
2021/11/19 01:16:39;;;;;;;28.88;15.85;;;12.20;99.90;;;;;;5056114;28;20461;-83
2021/11/19 01:19:12;;;;;;;32.30;16.63;;;12.20;99.90;;;;;;5038327;28;20029;-83
2021/11/19 01:21:44;;;;;;;23.95;15.15;;;12.20;99.90;;;;;;5038094;28;20037;-82
2021/11/19 01:24:11;;;;;;;32.28;17.10;;;12.20;99.90;;;;;;5056002;28;20106;-83
2021/11/19 01:26:41;;;;;;;33.58;17.70;;;12.20;99.90;;;;;;5037377;28;20103;-83
2021/11/19 01:29:10;;;;;;;29.38;16.42;;;12.20;99.90;;;;;;5055520;28;20107;-83
2021/11/19 01:31:42;;;;;;;30.60;17.63;;;12.20;99.90;;;;;;5037073;28;20055;-84
2021/11/19 01:34:08;;;;;;;29.48;16.83;;;12.20;99.90;;;;;;5055326;28;20033;-83
2021/11/19 01:36:34;;;;;;;27.75;16.05;;;12.20;99.90;;;;;;5037599;28;20113;-83
2021/11/19 01:39:01;;;;;;;29.02;17.27;;;12.20;99.90;;;;;;5037589;28;20040;-83
2021/11/19 01:41:32;;;;;;;29.20;16.75;;;12.20;99.90;;;;;;5037603;28;20033;-83
2021/11/19 01:44:00;;;;;;;33.42;18.40;;;12.20;99.90;;;;;;5054978;28;20029;-83
2021/11/19 01:46:28;;;;;;;31.00;18.33;;;12.20;99.90;;;;;;5055595;28;20029;-83
2021/11/19 01:48:55;;;;;;;30.75;18.17;;;12.20;99.90;;;;;;5055194;28;20497;-83
2021/11/19 01:51:45;;;;;;;29.60;18.00;;;12.20;99.90;;;;;;5055213;28;20025;-83
2021/11/19 01:54:27;;;;;;;35.95;19.75;;;12.20;99.90;;;;;;5036969;28;20473;-83
2021/11/19 01:57:02;;;;;;;34.80;19.00;;;12.20;99.90;;;;;;5054674;28;20017;-83
2021/11/19 01:59:40;;;;;;;38.88;19.63;;;12.20;99.90;;;;;;5037584;28;20032;-82
2021/11/19 02:02:12;;;;;;;32.42;19.35;;;12.20;99.90;;;;;;5055475;28;20029;-83
2021/11/19 02:04:43;;;;;;;29.33;17.85;;;12.20;99.90;;;;;;5037492;28;20033;-83
2021/11/19 02:07:22;;;;;;;37.10;21.23;;;12.20;99.90;;;;;;5037760;28;20032;-85
2021/11/19 02:10:14;;;;;;;30.70;20.02;;;12.20;99.90;;;;;;5036817;28;20072;-83
2021/11/19 02:13:01;;;;;;;31.95;18.73;;;12.20;99.90;;;;;;5029978;28;20135;-89
2021/11/19 02:15:41;;;;;;;37.85;20.83;;;12.20;99.90;;;;;;5037516;28;20457;-83
2021/11/19 02:18:11;;;;;;;38.60;20.83;;;12.20;99.90;;;;;;5037279;28;20116;-83
2021/11/19 02:20:45;;;;;;;37.03;21.27;;;12.20;99.90;;;;;;5036618;28;20070;-83
2021/11/19 02:23:19;;;;;;;29.60;18.75;;;12.20;99.90;;;;;;5055017;28;20527;-82
2021/11/19 02:25:55;;;;;;;35.83;20.90;;;12.20;99.90;;;;;;5054517;28;20025;-83
2021/11/19 02:28:26;;;;;;;39.13;21.75;;;12.20;99.90;;;;;;5054785;28;20131;-83
2021/11/19 02:31:23;;;;;;;38.47;20.42;;;12.20;99.90;;;;;;5054693;28;20021;-83
2021/11/19 02:33:53;;;;;;;35.03;22.30;;;12.30;99.90;;;;;;5042517;28;20446;-83
2021/11/19 02:36:23;;;;;;;35.20;21.08;;;12.20;99.90;;;;;;5054007;28;20480;-84
2021/11/19 02:39:01;;;;;;;40.10;22.00;;;12.20;99.90;;;;;;5037382;28;20070;-84
2021/11/19 02:41:32;;;;;;;36.75;21.75;;;12.20;99.90;;;;;;5052880;28;20037;-83
2021/11/19 02:43:59;;;;;;;;;;;12.20;99.90;;;;;;5037472;28;20033;-82
2021/11/19 02:46:30;;;;;;;36.40;21.92;;;12.20;99.90;;;;;;5054371;28;19905;-83
2021/11/19 02:48:56;;;;;;;29.77;20.63;;;12.20;99.90;;;;;;5036749;28;20028;-82
2021/11/19 02:51:23;;;;;;;36.42;20.73;;;12.20;99.90;;;;;;5020176;28;20025;-84
2021/11/19 02:53:50;;;;;;;39.40;23.10;;;12.20;99.90;;;;;;5036240;28;20098;-83
2021/11/19 02:56:16;;;;;;;31.48;20.23;;;12.10;99.90;;;;;;5054367;28;20039;-83
2021/11/19 02:58:46;;;;;;;35.80;21.67;;;12.20;99.90;;;;;;5035720;28;20021;-83
2021/11/19 03:01:26;;;;;;;40.25;23.83;;;12.20;99.90;;;;;;5035651;28;20029;-83
2021/11/19 03:04:05;;;;;;;35.88;23.00;;;12.20;99.90;;;;;;5036153;28;20028;-83
2021/11/19 03:06:35;;;;;;;34.20;23.75;;;12.20;99.90;;;;;;5035600;28;20017;-83
2021/11/19 03:09:01;;;;;;;36.77;24.77;;;12.20;99.90;;;;;;5035470;28;20036;-83
2021/11/19 03:11:27;;;;;;;43.20;25.98;;;12.20;99.90;;;;;;5019336;28;20029;-83
2021/11/19 03:13:52;;;;;;;40.05;24.73;;;12.20;99.90;;;;;;5035829;28;20025;-83
2021/11/19 03:16:18;;;;;;;44.00;27.33;;;12.20;99.90;;;;;;5035490;28;20060;-83
2021/11/19 03:18:44;;;;;;;43.85;26.60;;;12.20;99.90;;;;;;5052598;28;20032;-83
2021/11/19 03:21:15;;;;;;;45.55;27.10;;;12.20;99.90;;;;;;5019204;28;20477;-83
2021/11/19 03:23:42;;;;;;;44.28;28.67;;;12.20;99.90;;;;;;5053907;28;20025;-83
2021/11/19 03:26:10;;;;;;;44.05;27.17;;;12.20;99.90;;;;;;5053533;28;20025;-83
2021/11/19 03:28:36;;;;;;;46.42;29.05;;;12.20;99.90;;;;;;5035634;28;20021;-83
2021/11/19 03:31:08;;;;;;;49.83;30.67;;;12.20;99.90;;;;;;5036386;28;20017;-82
2021/11/19 03:33:38;;;;;;;43.70;29.60;;;12.20;99.90;;;;;;5063964;28;20032;-82
2021/11/19 03:36:05;;;;;;;48.03;29.40;;;12.20;99.90;;;;;;5047355;28;20488;-82
2021/11/19 03:38:33;;;;;;;47.50;29.73;;;12.20;99.90;;;;;;5063979;28;20024;-83
2021/11/19 03:41:01;;;;;;;49.67;29.73;;;12.20;99.90;;;;;;5063466;28;20055;-82
2021/11/19 03:43:31;;;;;;;52.15;30.65;;;12.20;99.90;;;;;;5045887;28;20424;-82
2021/11/19 03:46:02;;;;;;;49.20;30.58;;;12.20;99.90;;;;;;5042736;28;20500;-82
2021/11/19 03:48:29;;;;;;;49.65;28.88;;;12.20;99.90;;;;;;5035479;28;20036;-83
2021/11/19 03:51:17;;;;;;;47.28;29.10;;;12.20;99.90;;;;;;5035680;28;20013;-83
2021/11/19 03:53:43;;;;;;;51.60;29.25;;;12.20;99.90;;;;;;5035421;28;20029;-83
2021/11/19 03:56:09;;;;;;;48.30;31.05;;;12.20;99.90;;;;;;5035967;28;20021;-83
2021/11/19 03:58:37;;;;;;;49.90;30.35;;;12.20;99.90;;;;;;5035977;28;20032;-84
2021/11/19 04:01:09;;;;;;;47.13;30.50;;;12.30;99.90;;;;;;5035299;28;20029;-83
2021/11/19 04:03:34;;;;;;;51.10;30.83;;;12.20;99.90;;;;;;5035548;28;20036;-83
2021/11/19 04:06:00;;;;;;;46.15;29.40;;;12.20;99.90;;;;;;5035547;28;20033;-83
2021/11/19 04:08:27;;;;;;;47.40;28.35;;;12.30;99.90;;;;;;5019559;28;20029;-83
2021/11/19 04:10:53;;;;;;;49.92;29.83;;;12.20;99.90;;;;;;5035569;28;20036;-88
2021/11/19 04:13:19;;;;;;;45.03;28.30;;;12.30;99.90;;;;;;5035563;28;20021;-83
2021/11/19 04:15:53;;;;;;;47.17;30.38;;;12.30;99.90;;;;;;5035854;28;20051;-83
2021/11/19 04:18:18;;;;;;;47.25;30.17;;;12.20;99.90;;;;;;5053688;28;20025;-83
2021/11/19 04:20:46;;;;;;;47.53;29.52;;;12.30;99.90;;;;;;5035508;28;20381;-83
2021/11/19 04:23:12;;;;;;;51.90;29.77;;;12.30;99.90;;;;;;5053183;28;20061;-85
2021/11/19 04:25:38;;;;;;;47.28;30.70;;;12.30;99.90;;;;;;5035829;28;20029;-83
2021/11/19 04:28:05;;;;;;;47.55;29.88;;;12.30;99.90;;;;;;5035433;28;20030;-83
2021/11/19 04:30:35;;;;;;;47.65;28.77;;;12.30;99.90;;;;;;5053526;28;20042;-83
2021/11/19 04:33:02;;;;;;;44.13;29.08;;;12.30;99.90;;;;;;5052928;28;20032;-83
2021/11/19 04:35:30;;;;;;;44.00;28.20;;;12.30;99.90;;;;;;5053112;28;20112;-83
2021/11/19 04:37:56;;;;;;;46.60;29.73;;;12.30;99.90;;;;;;5035607;28;20060;-89
2021/11/19 04:40:23;;;;;;;42.75;27.38;;;12.30;99.90;;;;;;5053314;28;20029;-83
2021/11/19 04:42:49;;;;;;;45.70;30.10;;;12.30;99.90;;;;;;5038986;28;20137;-83
2021/11/19 04:45:19;;;;;;;41.22;28.38;;;12.30;99.90;;;;;;5056496;28;20056;-82
2021/11/19 04:47:45;;;;;;;48.23;30.63;;;12.30;99.90;;;;;;5039015;28;20445;-83
2021/11/19 04:50:12;;;;;;;43.33;27.27;;;12.30;99.90;;;;;;5038718;28;20029;-82
2021/11/19 04:52:38;;;;;;;47.97;29.30;;;12.30;99.90;;;;;;5056619;28;20029;-83
2021/11/19 04:55:07;;;;;;;43.60;28.73;;;12.30;99.90;;;;;;5038940;28;20086;-83
2021/11/19 04:57:33;;;;;;;49.88;29.80;;;12.30;99.90;;;;;;5038666;28;20453;-83
2021/11/19 04:59:59;;;;;;;44.85;27.00;;;12.30;99.90;;;;;;5038402;28;20067;-84
2021/11/19 05:02:27;;;;;;;41.35;28.00;;;12.30;99.90;;;;;;5022114;28;20029;-83
2021/11/19 05:04:53;;;;;;;44.00;27.80;;;12.30;99.90;;;;;;5039061;28;20025;-83
2021/11/19 05:07:19;;;;;;;46.97;28.98;;;12.30;99.90;;;;;;5039160;28;20033;-83
2021/11/19 05:09:45;;;;;;;41.72;27.67;;;12.40;99.90;;;;;;5056342;28;20036;-83
2021/11/19 05:12:33;;;;;;;49.80;30.70;;;12.30;99.90;;;;;;5021819;28;20025;-83
2021/11/19 05:14:59;;;;;;;45.75;28.67;;;12.30;99.90;;;;;;5038010;28;20022;-90
2021/11/19 05:17:25;;;;;;;46.90;28.65;;;12.30;99.90;;;;;;5038469;28;20476;-83
2021/11/19 05:19:52;;;;;;;46.85;28.23;;;12.30;99.90;;;;;;5021868;28;20120;-83
2021/11/19 05:22:18;;;;;;;48.60;30.17;;;12.30;99.90;;;;;;5055920;28;20029;-83
2021/11/19 05:24:45;;;;;;;43.17;27.88;;;12.30;99.90;;;;;;5021901;28;20028;-83
2021/11/19 05:27:11;;;;;;;44.97;28.05;;;12.30;99.90;;;;;;5056172;28;20070;-83
2021/11/19 05:29:37;;;;;;;41.58;27.17;;;12.30;99.90;;;;;;5038550;28;20170;-83
2021/11/19 05:32:04;;;;;;;50.25;31.00;;;12.30;99.90;;;;;;5038139;28;20025;-83
2021/11/19 05:34:30;;;;;;;49.38;29.20;;;12.30;99.90;;;;;;5055430;28;20488;-83
2021/11/19 05:36:56;;;;;;;48.90;29.52;;;12.30;99.90;;;;;;5030324;28;20053;-83
2021/11/19 05:39:22;;;;;;;49.75;29.80;;;12.30;99.90;;;;;;5002213;28;20035;-82
2021/11/19 05:41:49;;;;;;;43.42;28.40;;;12.20;99.90;;;;;;5036967;28;20105;-82
2021/11/19 05:44:15;;;;;;;50.17;28.02;;;12.30;99.90;;;;;;5036364;28;20029;-83
2021/11/19 05:46:42;;;;;;;45.83;28.05;;;12.30;99.90;;;;;;5035311;28;20039;-83
2021/11/19 05:49:10;;;;;;;53.72;31.38;;;12.30;99.90;;;;;;5035826;28;20073;-83
2021/11/19 05:51:36;;;;;;;52.63;30.65;;;12.30;99.90;;;;;;5034578;28;20128;-84
2021/11/19 05:54:04;;;;;;;58.15;31.30;;;12.30;99.90;;;;;;5001907;28;20029;-82
2021/11/19 05:56:30;;;;;;;47.60;29.38;;;12.20;99.90;;;;;;5017570;28;20025;-83
2021/11/19 05:58:55;;;;;;;44.42;28.27;;;12.20;99.90;;;;;;5017950;28;20037;-83
2021/11/19 06:01:22;;;;;;;51.08;31.42;;;12.30;99.90;;;;;;5017613;28;20116;-82
2021/11/19 06:03:48;;;;;;;49.78;30.65;;;12.30;99.90;;;;;;5035599;28;20359;-83
2021/11/19 06:06:16;;;;;;;52.25;30.30;;;12.20;99.90;;;;;;5035012;28;20026;-83
2021/11/19 06:08:43;;;;;;;49.22;29.40;;;12.30;99.90;;;;;;5034166;28;20026;-83
2021/11/19 06:11:12;;;;;;;51.38;30.17;;;12.30;99.90;;;;;;5016952;28;20021;-83
2021/11/19 06:13:53;;;;;;;49.05;29.80;;;12.30;99.90;;;;;;5016947;28;20033;-84
2021/11/19 06:16:23;;;;;;;51.53;29.63;;;12.30;99.90;;;;;;5018169;28;20083;-83
2021/11/19 06:18:53;;;;;;;49.83;28.77;;;12.30;99.90;;;;;;5018146;28;20026;-83
2021/11/19 06:21:42;;;;;;;46.10;29.47;;;12.30;99.90;;;;;;5017772;28;20026;-83
2021/11/19 06:24:14;;;;;;;46.45;29.08;;;12.30;99.90;;;;;;5034284;28;20112;-84
2021/11/19 06:26:43;;;;;;;44.33;27.75;;;12.30;99.90;;;;;;5017714;28;20469;-83
2021/11/19 06:29:08;;;;;;;46.42;29.98;;;12.30;99.90;;;;;;5017670;28;20079;-83
2021/11/19 06:31:37;;;;;;;45.85;27.63;;;12.30;99.90;;;;;;5008457;28;20033;-83
2021/11/19 06:34:03;;;;;;;48.60;28.63;;;12.30;99.90;;;;;;5017958;28;20377;-82
2021/11/19 06:36:31;;;;;;;44.28;28.15;;;12.30;99.90;;;;;;5004553;28;20107;-83
2021/11/19 06:38:58;;;;;;;42.05;26.90;;;12.30;99.90;;;;;;5037093;28;20033;-83
2021/11/19 06:41:24;;;;;;;42.40;27.23;;;12.30;99.90;;;;;;5055114;28;20029;-83
2021/11/19 06:43:50;;;;;;;48.53;29.20;;;12.40;99.90;;;;;;5037545;28;20036;-83
2021/11/19 06:46:18;;;;;;;43.75;28.15;;;12.40;99.90;;;;;;5054604;28;20031;-83
2021/11/19 06:48:45;;;;;;;49.95;29.85;;;12.30;99.90;;;;;;5055142;28;20048;-83
2021/11/19 06:51:11;;;;;;;42.83;27.70;;;12.30;99.90;;;;;;5055167;28;20032;-83
2021/11/19 06:53:37;;;;;;;43.10;27.90;;;12.40;99.90;;;;;;5037139;28;20048;-83
2021/11/19 06:56:07;;;;;;;47.00;28.98;;;12.30;99.90;;;;;;5005752;28;20021;-82
2021/11/19 06:58:33;;;;;;;46.28;27.13;;;12.40;99.90;;;;;;5037508;28;20028;-83
2021/11/19 07:01:01;;;;;;;47.50;28.65;;;12.30;99.90;;;;;;5036237;28;20485;-83
2021/11/19 07:03:27;;;;;;;41.15;27.50;;;12.40;99.90;;;;;;5035605;28;20466;-83
2021/11/19 07:05:52;;;;;;;44.15;27.95;;;12.40;99.90;;;;;;5035820;28;20469;-83
2021/11/19 07:08:18;;;;;;;43.67;27.23;;;12.40;99.90;;;;;;5036633;28;20082;-83
2021/11/19 07:10:48;;;;;;;42.75;27.98;;;12.40;99.90;;;;;;5053727;28;20021;-82
2021/11/19 07:13:14;;;;;;;43.97;28.27;;;12.40;99.90;;;;;;5054065;28;20108;-83
2021/11/19 07:15:41;;;;;;;45.30;28.75;;;12.40;99.90;;;;;;5036423;28;20497;-83
2021/11/19 07:18:08;;;;;;;43.92;27.50;;;12.40;99.90;;;;;;5036409;28;20029;-83
2021/11/19 07:20:38;;;;;;;41.75;27.25;;;12.40;99.90;;;;;;5035611;28;20111;-83
2021/11/19 07:23:04;;;;;;;43.95;27.33;;;12.40;99.90;;;;;;5052645;28;20029;-83
2021/11/19 07:25:32;;;;;;;39.83;23.63;;;12.40;99.90;;;;;;5035694;28;20163;-82
2021/11/19 07:27:59;;;;;;;44.50;25.08;;;12.40;99.90;;;;;;5054662;28;20029;-81
2021/11/19 07:30:54;;;;;;;49.35;30.13;;;12.40;99.90;;;;;;5036515;28;20377;-83
2021/11/19 07:33:21;;;;;;;39.42;26.83;;;12.50;99.90;;;;;;5051783;28;20473;-83
2021/11/19 07:35:48;;;;;;;37.30;24.63;;;12.50;99.90;;;;;;5036150;28;20025;-82
2021/11/19 07:38:15;;;;;;;43.05;27.80;;;12.50;99.90;;;;;;5035685;28;20053;-83
2021/11/19 07:40:43;;;;;;;41.13;27.02;;;12.50;99.90;;;;;;5053785;28;20115;-83
2021/11/19 07:43:10;;;;;;;41.33;26.85;;;12.50;99.90;;;;;;5053404;28;20039;-83
2021/11/19 07:45:37;;;;;;;46.17;26.08;;;12.50;99.90;;;;;;5036336;28;20361;-83
2021/11/19 07:48:11;;;;;;;38.45;24.88;;;12.50;99.90;;;;;;5036563;28;20087;-82
2021/11/19 07:50:38;;;;;;;35.58;24.23;;;12.50;99.90;;;;;;5035867;28;20029;-82
2021/11/19 07:53:04;;;;;;;41.30;26.00;;;12.50;99.90;;;;;;5054248;28;20083;-83
2021/11/19 07:55:30;;;;;;;39.15;25.77;;;12.50;99.90;;;;;;5036851;28;20025;-83
2021/11/19 07:57:56;;;;;;;36.92;24.33;;;12.50;99.90;;;;;;5021125;28;20036;-82
2021/11/19 08:00:27;;;;;;;36.00;23.25;;;12.50;99.90;;;;;;5022629;28;20037;-82
2021/11/19 08:02:52;;;;;;;35.15;24.95;;;12.50;99.90;;;;;;5044114;28;20029;-82
2021/11/19 08:05:19;;;;;;;35.97;23.15;;;12.50;99.90;;;;;;5043923;28;20029;-87
2021/11/19 08:07:45;;;;;;;38.90;24.58;;;12.50;99.90;;;;;;5063726;28;20025;-83
2021/11/19 08:10:12;;;;;;;32.97;21.50;;;12.50;99.90;;;;;;5048182;28;20039;-82
2021/11/19 08:12:38;;;;;;;33.97;23.73;;;12.50;99.90;;;;;;5065379;28;20026;-82
2021/11/19 08:15:05;;;;;;;31.80;22.70;;;12.60;99.90;;;;;;5046556;28;20029;-83
2021/11/19 08:17:35;;;;;;;38.13;25.08;;;12.60;99.90;;;;;;5058799;28;20018;-83
2021/11/19 08:20:04;;;;;;;34.67;22.90;;;12.60;99.90;;;;;;5059683;28;20082;-82
2021/11/19 08:22:29;;;;;;;34.58;23.30;;;12.60;99.90;;;;;;5040020;28;20025;-83
2021/11/19 08:24:56;;;;;;;35.50;22.52;;;12.60;99.90;;;;;;5039800;28;20076;-83
2021/11/19 08:27:32;;;;;;;33.65;22.63;;;12.60;99.90;;;;;;5057473;28;20032;-83
2021/11/19 08:30:00;;;;;;;35.10;22.45;;;12.60;99.90;;;;;;5039698;28;20118;-83
2021/11/19 08:32:27;;;;;;;36.20;24.13;;;12.60;99.90;;;;;;5061298;28;20032;-83
2021/11/19 08:34:54;;;;;;;35.90;23.70;;;12.60;99.90;;;;;;5058767;28;20020;-83
2021/11/19 08:37:22;;;;;;;34.25;23.38;;;12.60;99.90;;;;;;5065312;28;20021;-82
2021/11/19 08:39:49;;;;;;;33.70;23.83;;;12.60;99.90;;;;;;5074592;28;20035;-82
2021/11/19 08:42:15;;;;;;;34.63;22.33;;;12.70;99.90;;;;;;5054265;28;20029;-85
2021/11/19 08:44:43;;;;;;;33.80;22.35;;;12.60;99.90;;;;;;5072919;28;20032;-82
2021/11/19 08:47:10;;;;;;;32.97;23.23;;;12.70;99.90;;;;;;5072588;28;20111;-84
2021/11/19 08:49:38;;;;;;;34.83;22.60;;;12.70;99.90;;;;;;5054094;28;20040;-83
2021/11/19 08:52:10;;;;;;;36.92;23.95;;;12.70;99.90;;;;;;5066897;28;20111;-83
2021/11/19 08:54:36;;;;;;;34.22;22.75;;;12.70;99.90;;;;;;5046402;28;20447;-82
2021/11/19 08:57:05;;;;;;;36.60;22.17;;;12.70;99.90;;;;;;5062679;28;20024;-84
2021/11/19 08:59:36;;;;;;;32.53;22.48;;;12.70;99.90;;;;;;5042445;28;20485;-83
2021/11/19 09:02:03;;;;;;;33.30;21.50;;;12.80;99.90;;;;;;5057337;28;20139;-83
2021/11/19 09:04:30;;;;;;;31.52;21.77;;;12.70;99.90;;;;;;5058053;28;20043;-83
2021/11/19 09:06:57;;;;;;;30.95;21.23;;;12.80;99.90;;;;;;5056701;28;20074;-83
2021/11/19 09:09:25;;;;;;;31.50;21.42;;;12.80;99.90;;;;;;5038545;28;20246;-83
2021/11/19 09:11:51;;;;;;;35.88;21.48;;;12.80;99.90;;;;;;5056235;28;20021;-84
2021/11/19 09:14:17;;;;;;;33.25;21.33;;;12.80;99.90;;;;;;5038866;28;20389;-83
2021/11/19 09:17:21;;;;;;;31.52;21.67;;;12.80;99.90;;;;;;5056465;28;20039;-83
2021/11/19 09:20:44;;;;;;;33.30;20.15;;;12.80;99.90;;;;;;5033687;28;20037;-83
2021/11/19 09:23:26;;;;;;;25.55;19.23;;;12.80;99.90;;;;;;4995202;28;20035;-83
2021/11/19 09:25:56;;;;;;;35.60;20.30;;;12.80;99.90;;;;;;4978675;28;20029;-83
2021/11/19 09:28:25;;;;;;;28.55;19.45;;;12.90;99.90;;;;;;5039507;28;20465;-83
2021/11/19 09:30:55;;;;;;;26.95;20.05;;;12.90;99.90;;;;;;5056431;28;20029;-83
2021/11/19 09:33:22;;;;;;;30.45;20.42;;;12.90;99.90;;;;;;5038048;28;20539;-83
2021/11/19 09:35:49;;;;;;;28.90;20.15;;;12.90;99.90;;;;;;5056323;28;20037;-83
2021/11/19 09:38:17;;;;;;;26.60;18.80;;;12.90;99.90;;;;;;5056200;28;20049;-83
2021/11/19 09:41:03;;;;;;;28.13;18.88;;;12.90;99.90;;;;;;5055937;28;20047;-83
2021/11/19 09:44:02;;;;;;;28.17;19.13;;;12.90;99.90;;;;;;5056108;28;20143;-84
2021/11/19 09:46:58;;;;;;;26.52;18.75;;;13.00;99.90;;;;;;5056307;28;20068;-83
2021/11/19 09:49:30;;;;;;;27.40;18.75;;;13.00;99.90;;;;;;5037986;28;20524;-82
2021/11/19 09:51:58;;;;;;;29.70;19.08;;;13.00;99.90;;;;;;5037960;28;20111;-83
2021/11/19 09:54:45;;;;;;;27.98;17.95;;;13.00;99.90;;;;;;5055569;28;20470;-83
2021/11/19 09:57:38;;;;;;;25.90;17.92;;;13.10;99.90;;;;;;5055776;28;20032;-83
2021/11/19 10:00:38;;;;;;;25.20;18.67;;;13.10;99.90;;;;;;5054921;28;20032;-84
2021/11/19 10:03:04;;;;;;;22.40;16.70;;;13.10;99.90;;;;;;5037493;28;20450;-84
2021/11/19 10:05:45;;;;;;;20.27;14.82;;;13.20;99.90;;;;;;5055374;28;20032;-83
2021/11/19 10:08:45;;;;;;;24.48;16.80;;;13.20;99.90;;;;;;5037479;28;20072;-83
2021/11/19 10:11:35;;;;;;;25.50;16.52;;;13.20;99.90;;;;;;5055255;28;20081;-83
2021/11/19 10:14:36;;;;;;;23.83;16.80;;;13.30;99.90;;;;;;5055349;28;20024;-83
2021/11/19 10:17:13;;;;;;;26.00;17.35;;;13.30;99.90;;;;;;5055412;28;20021;-83
2021/11/19 10:19:59;;;;;;;20.45;15.02;;;13.30;99.90;;;;;;5037256;28;20062;-82
2021/11/19 10:22:35;;;;;;;20.45;16.55;;;13.30;99.90;;;;;;5054627;28;20040;-83
2021/11/19 10:25:10;;;;;;;21.15;15.43;;;13.30;99.90;;;;;;5055277;28;20032;-83
2021/11/19 10:27:45;;;;;;;21.83;14.32;;;13.30;99.90;;;;;;5054958;28;20017;-84
2021/11/19 10:30:32;;;;;;;19.00;13.43;;;13.40;99.90;;;;;;5037081;28;20496;-83
2021/11/19 10:33:21;;;;;;;18.70;13.80;;;13.40;99.90;;;;;;5054834;28;20025;-83
2021/11/19 10:36:19;;;;;;;24.27;14.63;;;13.40;99.90;;;;;;5053805;28;20037;-83
2021/11/19 10:39:06;;;;;;;19.88;12.98;;;13.40;99.90;;;;;;5003909;28;20128;-83
2021/11/19 10:42:03;;;;;;;19.35;13.35;;;13.50;99.90;;;;;;5016990;28;20390;-83
2021/11/19 10:44:39;;;;;;;19.50;13.70;;;13.50;99.90;;;;;;5034593;28;20033;-83
2021/11/19 10:47:05;;;;;;;23.15;14.68;;;13.50;99.90;;;;;;5033613;28;20104;-83
2021/11/19 10:50:05;;;;;;;19.17;13.57;;;13.60;99.90;;;;;;5016817;28;20060;-83
2021/11/19 10:52:40;;;;;;;15.55;11.40;;;13.60;99.90;;;;;;5016246;28;20021;-83
2021/11/19 10:55:43;;;;;;;18.33;12.85;;;13.60;99.90;;;;;;5033831;28;20079;-83
2021/11/19 10:58:31;;;;;;;18.88;12.40;;;13.70;99.90;;;;;;5034133;28;20018;-82
2021/11/19 11:01:00;;;;;;;16.13;10.63;;;13.70;99.90;;;;;;5034376;28;20036;-82
2021/11/19 11:03:40;;;;;;;15.50;11.52;;;13.70;99.90;;;;;;5016542;28;20029;-83
2021/11/19 11:06:11;;;;;;;18.85;10.90;;;13.80;99.90;;;;;;5016512;28;20470;-83
2021/11/19 11:08:42;;;;;;;16.75;10.18;;;13.70;99.90;;;;;;5034423;28;20492;-83
2021/11/19 11:11:28;;;;;;;18.77;10.00;;;13.80;99.90;;;;;;5015969;28;20040;-83
2021/11/19 11:13:56;;;;;;;15.52;10.05;;;13.90;99.90;;;;;;5034235;28;20033;-83
2021/11/19 11:16:25;;;;;;;15.13;9.50;;;13.90;99.90;;;;;;5034657;28;20032;-83
2021/11/19 11:18:50;;;;;;;13.68;10.13;;;13.90;99.90;;;;;;5035429;28;20537;-83
2021/11/19 11:21:36;;;;;;;15.38;8.98;;;13.90;99.90;;;;;;5018173;28;20064;-82
2021/11/19 11:24:16;;;;;;;20.77;10.10;;;13.90;99.90;;;;;;5035640;28;20083;-83
2021/11/19 11:26:44;;;;;;;15.25;10.35;;;14.00;99.90;;;;;;5018009;28;20040;-83
2021/11/19 11:29:16;;;;;;;16.38;10.48;;;14.00;99.90;;;;;;5036492;28;20092;-82
2021/11/19 11:32:06;;;;;;;16.33;10.38;;;14.00;99.90;;;;;;5038881;28;20033;-88
2021/11/19 11:34:43;;;;;;;18.83;11.07;;;13.90;99.90;;;;;;5040233;28;20025;-83
2021/11/19 11:37:17;;;;;;;14.07;10.27;;;14.00;99.90;;;;;;5051997;28;20022;-82
2021/11/19 11:39:55;;;;;;;14.25;8.55;;;13.90;99.90;;;;;;5065120;28;20020;-88
2021/11/19 11:42:25;;;;;;;14.80;9.55;;;13.90;99.90;;;;;;5063232;28;20025;-83
2021/11/19 11:44:54;;;;;;;15.73;9.20;;;13.90;99.90;;;;;;5036792;28;20183;-83
2021/11/19 11:47:54;;;;;;;16.50;8.93;;;13.90;99.90;;;;;;5053339;28;20104;-83
2021/11/19 11:50:58;;;;;;;14.23;8.30;;;13.90;99.90;;;;;;5035116;28;20025;-83
2021/11/19 11:53:49;;;;;;;13.77;7.80;;;13.90;99.90;;;;;;5027568;28;20033;-83
2021/11/19 11:56:28;;;;;;;9.82;7.50;;;13.80;99.90;;;;;;5024631;28;20466;-83
2021/11/19 11:59:03;;;;;;;13.13;8.10;;;13.90;99.90;;;;;;5035133;28;20104;-83
2021/11/19 12:01:54;;;;;;;11.68;7.30;;;13.80;99.90;;;;;;5053587;28;20208;-83
2021/11/19 12:04:31;;;;;;;15.52;7.55;;;13.80;99.90;;;;;;5036232;28;20017;-83
2021/11/19 12:07:07;;;;;;;13.40;6.55;;;13.90;99.90;;;;;;5035426;28;20060;-83
2021/11/19 12:09:41;;;;;;;10.35;6.28;;;14.00;99.90;;;;;;5053532;28;20040;-84
2021/11/19 12:12:36;;;;;;;10.30;6.32;;;14.10;99.90;;;;;;5035712;28;20029;-83
2021/11/19 12:15:27;;;;;;;14.32;7.50;;;14.10;99.90;;;;;;5035442;28;20600;-83
2021/11/19 12:17:59;;;;;;;12.45;6.60;;;14.20;99.90;;;;;;5035868;28;20437;-83
2021/11/19 12:20:52;;;;;;;12.35;6.60;;;14.20;99.90;;;;;;5035546;28;20057;-83
2021/11/19 12:23:40;;;;;;;7.30;4.82;;;14.30;99.90;;;;;;5053313;28;20103;-83
2021/11/19 12:26:44;;;;;;;9.27;5.57;;;14.30;99.90;;;;;;5052163;28;20381;-83
2021/11/19 12:29:12;;;;;;;9.90;5.82;;;14.20;99.90;;;;;;5014834;28;20120;-83
2021/11/19 12:32:06;;;;;;;9.95;5.93;;;14.20;99.90;;;;;;5053482;28;20032;-84
2021/11/19 12:34:39;;;;;;;11.48;6.20;;;14.20;99.90;;;;;;5019947;28;20381;-83
2021/11/19 12:37:24;;;;;;;8.52;5.22;;;14.20;99.90;;;;;;5052546;28;20103;-83
2021/11/19 12:39:51;;;;;;;8.55;5.15;;;14.10;99.90;;;;;;5053349;28;20033;-84
2021/11/19 12:42:19;;;;;;;9.30;5.30;;;14.20;99.90;;;;;;5052403;28;20090;-84
2021/11/19 12:45:12;;;;;;;9.55;5.00;;;14.10;99.90;;;;;;5053289;28;20074;-83
2021/11/19 12:48:19;;;;;;;9.25;5.38;;;14.10;99.90;;;;;;5053157;28;20167;-84
2021/11/19 12:51:04;;;;;;;10.25;5.10;;;14.10;99.90;;;;;;5034812;28;20112;-84
2021/11/19 12:53:54;;;;;;;11.52;5.63;;;14.10;99.90;;;;;;5052246;28;20013;-84